sensor_id;sensor_type;location;lat;lon;timestamp;temperature;humidity
37478;DHT22;23334;54.316;10.182;2023-02-20T00:01:50;5.30;99.90
37478;DHT22;23334;54.316;10.182;2023-02-20T00:04:17;5.40;99.90
37478;DHT22;23334;54.316;10.182;2023-02-20T00:06:42;5.40;99.90
37478;DHT22;23334;54.316;10.182;2023-02-20T00:11:34;5.30;99.90
37478;DHT22;23334;54.316;10.182;2023-02-20T00:13:59;5.30;99.90
37478;DHT22;23334;54.316;10.182;2023-02-20T00:16:25;5.30;99.90
37478;DHT22;23334;54.316;10.182;2023-02-20T00:18:50;5.30;99.90
37478;DHT22;23334;54.316;10.182;2023-02-20T00:21:16;5.30;99.90
37478;DHT22;23334;54.316;10.182;2023-02-20T00:23:41;5.30;99.90
37478;DHT22;23334;54.316;10.182;2023-02-20T00:26:12;5.30;99.90
37478;DHT22;23334;54.316;10.182;2023-02-20T00:28:38;5.20;99.90
37478;DHT22;23334;54.316;10.182;2023-02-20T00:31:07;5.30;99.90
37478;DHT22;23334;54.316;10.182;2023-02-20T00:36:01;5.30;99.90
37478;DHT22;23334;54.316;10.182;2023-02-20T00:40:52;5.30;99.90
37478;DHT22;23334;54.316;10.182;2023-02-20T00:43:18;5.30;99.90
37478;DHT22;23334;54.316;10.182;2023-02-20T00:45:43;5.30;99.90
37478;DHT22;23334;54.316;10.182;2023-02-20T00:48:08;5.30;99.90
37478;DHT22;23334;54.316;10.182;2023-02-20T00:50:34;5.30;99.90
37478;DHT22;23334;54.316;10.182;2023-02-20T00:52:59;5.20;99.90
37478;DHT22;23334;54.316;10.182;2023-02-20T00:55:25;5.40;99.90
37478;DHT22;23334;54.316;10.182;2023-02-20T00:57:50;5.40;99.90
37478;DHT22;23334;54.316;10.182;2023-02-20T01:00:24;5.30;99.90
37478;DHT22;23334;54.316;10.182;2023-02-20T01:02:49;5.40;99.90
37478;DHT22;23334;54.316;10.182;2023-02-20T01:10:08;5.30;99.90
37478;DHT22;23334;54.316;10.182;2023-02-20T01:12:34;5.30;99.90
37478;DHT22;23334;54.316;10.182;2023-02-20T01:19:51;6.20;99.90
37478;DHT22;23334;54.316;10.182;2023-02-20T01:24:43;5.40;99.90
37478;DHT22;23334;54.316;10.182;2023-02-20T01:27:09;5.30;99.90
37478;DHT22;23334;54.316;10.182;2023-02-20T01:29:34;5.40;99.90
37478;DHT22;23334;54.316;10.182;2023-02-20T01:32:00;5.40;99.90
37478;DHT22;23334;54.316;10.182;2023-02-20T01:34:26;5.40;99.90
37478;DHT22;23334;54.316;10.182;2023-02-20T01:36:53;5.40;99.90
37478;DHT22;23334;54.316;10.182;2023-02-20T01:39:24;5.30;99.90
37478;DHT22;23334;54.316;10.182;2023-02-20T01:41:57;5.30;99.90
37478;DHT22;23334;54.316;10.182;2023-02-20T01:44:32;5.40;99.90
37478;DHT22;23334;54.316;10.182;2023-02-20T01:46:59;5.40;99.90
37478;DHT22;23334;54.316;10.182;2023-02-20T01:49:34;5.30;99.90
37478;DHT22;23334;54.316;10.182;2023-02-20T01:52:06;5.40;99.90
37478;DHT22;23334;54.316;10.182;2023-02-20T01:54:33;5.40;99.90
37478;DHT22;23334;54.316;10.182;2023-02-20T01:57:02;5.40;99.90
37478;DHT22;23334;54.316;10.182;2023-02-20T01:59:31;5.40;99.90
37478;DHT22;23334;54.316;10.182;2023-02-20T02:01:58;5.50;99.90
37478;DHT22;23334;54.316;10.182;2023-02-20T02:04:24;5.50;99.90
37478;DHT22;23334;54.316;10.182;2023-02-20T02:06:51;5.50;99.90
37478;DHT22;23334;54.316;10.182;2023-02-20T02:09:30;5.50;99.90
37478;DHT22;23334;54.316;10.182;2023-02-20T02:11:56;5.60;99.90
37478;DHT22;23334;54.316;10.182;2023-02-20T02:17:08;5.60;99.90
37478;DHT22;23334;54.316;10.182;2023-02-20T02:19:59;5.60;99.90
37478;DHT22;23334;54.316;10.182;2023-02-20T02:25:30;5.60;99.90
37478;DHT22;23334;54.316;10.182;2023-02-20T02:37:06;5.70;99.90
37478;DHT22;23334;54.316;10.182;2023-02-20T02:39:47;5.60;99.90
37478;DHT22;23334;54.316;10.182;2023-02-20T02:42:23;5.60;99.90
37478;DHT22;23334;54.316;10.182;2023-02-20T02:44:59;5.70;99.90
37478;DHT22;23334;54.316;10.182;2023-02-20T02:47:57;5.70;99.90
37478;DHT22;23334;54.316;10.182;2023-02-20T02:50:44;5.80;99.90
37478;DHT22;23334;54.316;10.182;2023-02-20T02:53:12;5.80;99.90
37478;DHT22;23334;54.316;10.182;2023-02-20T02:55:37;5.90;99.90
37478;DHT22;23334;54.316;10.182;2023-02-20T02:58:04;5.80;99.90
37478;DHT22;23334;54.316;10.182;2023-02-20T03:00:50;5.70;99.90
37478;DHT22;23334;54.316;10.182;2023-02-20T03:03:31;5.80;99.90
37478;DHT22;23334;54.316;10.182;2023-02-20T03:06:04;5.90;99.90
37478;DHT22;23334;54.316;10.182;2023-02-20T03:08:50;6.00;99.90
37478;DHT22;23334;54.316;10.182;2023-02-20T03:11:23;6.00;99.90
37478;DHT22;23334;54.316;10.182;2023-02-20T03:14:14;6.10;99.90
37478;DHT22;23334;54.316;10.182;2023-02-20T03:17:27;6.10;99.90
37478;DHT22;23334;54.316;10.182;2023-02-20T03:19:59;6.30;99.90
37478;DHT22;23334;54.316;10.182;2023-02-20T03:23:03;6.20;99.90
37478;DHT22;23334;54.316;10.182;2023-02-20T03:25:25;6.30;99.90
37478;DHT22;23334;54.316;10.182;2023-02-20T03:28:00;6.20;99.90
37478;DHT22;23334;54.316;10.182;2023-02-20T03:30:44;6.30;99.90
37478;DHT22;23334;54.316;10.182;2023-02-20T03:36:36;6.50;99.90
37478;DHT22;23334;54.316;10.182;2023-02-20T03:39:24;6.60;99.90
37478;DHT22;23334;54.316;10.182;2023-02-20T03:42:12;6.60;99.90
37478;DHT22;23334;54.316;10.182;2023-02-20T03:45:01;6.70;99.90
37478;DHT22;23334;54.316;10.182;2023-02-20T03:47:30;6.70;99.90
37478;DHT22;23334;54.316;10.182;2023-02-20T03:49:59;6.70;99.90
37478;DHT22;23334;54.316;10.182;2023-02-20T03:52:26;6.50;99.90
37478;DHT22;23334;54.316;10.182;2023-02-20T03:54:52;6.80;99.90
37478;DHT22;23334;54.316;10.182;2023-02-20T03:57:22;6.80;99.90
37478;DHT22;23334;54.316;10.182;2023-02-20T04:00:12;6.90;99.90
37478;DHT22;23334;54.316;10.182;2023-02-20T04:02:43;6.90;99.90
37478;DHT22;23334;54.316;10.182;2023-02-20T04:05:14;7.00;99.90
37478;DHT22;23334;54.316;10.182;2023-02-20T04:07:57;6.90;99.90
37478;DHT22;23334;54.316;10.182;2023-02-20T04:10:27;6.90;99.90
37478;DHT22;23334;54.316;10.182;2023-02-20T04:12:55;6.90;99.90
37478;DHT22;23334;54.316;10.182;2023-02-20T04:15:22;7.00;99.90
37478;DHT22;23334;54.316;10.182;2023-02-20T04:17:58;7.00;99.90
37478;DHT22;23334;54.316;10.182;2023-02-20T04:20:25;6.90;99.90
37478;DHT22;23334;54.316;10.182;2023-02-20T04:22:53;7.10;99.90
37478;DHT22;23334;54.316;10.182;2023-02-20T04:25:29;7.20;99.90
37478;DHT22;23334;54.316;10.182;2023-02-20T04:27:59;7.20;99.90
37478;DHT22;23334;54.316;10.182;2023-02-20T04:32:50;7.30;99.90
37478;DHT22;23334;54.316;10.182;2023-02-20T04:35:17;7.40;99.90
37478;DHT22;23334;54.316;10.182;2023-02-20T04:37:45;7.40;99.90
37478;DHT22;23334;54.316;10.182;2023-02-20T04:40:12;7.40;99.90
37478;DHT22;23334;54.316;10.182;2023-02-20T04:42:38;7.40;99.90
37478;DHT22;23334;54.316;10.182;2023-02-20T04:45:04;7.50;99.90
37478;DHT22;23334;54.316;10.182;2023-02-20T04:52:21;7.50;99.90
37478;DHT22;23334;54.316;10.182;2023-02-20T04:54:48;7.60;99.90
37478;DHT22;23334;54.316;10.182;2023-02-20T04:57:14;7.60;99.90
37478;DHT22;23334;54.316;10.182;2023-02-20T05:04:32;7.70;99.90
37478;DHT22;23334;54.316;10.182;2023-02-20T05:06:58;7.60;99.90
37478;DHT22;23334;54.316;10.182;2023-02-20T05:09:24;7.60;99.90
37478;DHT22;23334;54.316;10.182;2023-02-20T05:16:42;7.70;99.90
37478;DHT22;23334;54.316;10.182;2023-02-20T05:19:09;7.60;99.90
37478;DHT22;23334;54.316;10.182;2023-02-20T05:24:20;7.70;99.90
37478;DHT22;23334;54.316;10.182;2023-02-20T05:26:46;7.70;99.90
37478;DHT22;23334;54.316;10.182;2023-02-20T05:29:11;7.60;99.90
37478;DHT22;23334;54.316;10.182;2023-02-20T05:31:41;7.70;99.90
37478;DHT22;23334;54.316;10.182;2023-02-20T05:34:07;7.70;99.90
37478;DHT22;23334;54.316;10.182;2023-02-20T05:36:33;7.70;99.90
37478;DHT22;23334;54.316;10.182;2023-02-20T05:38:58;7.70;99.90
37478;DHT22;23334;54.316;10.182;2023-02-20T05:41:25;7.70;99.90
37478;DHT22;23334;54.316;10.182;2023-02-20T05:43:51;8.10;99.90
37478;DHT22;23334;54.316;10.182;2023-02-20T05:46:18;7.80;99.90
37478;DHT22;23334;54.316;10.182;2023-02-20T05:48:48;7.70;99.90
37478;DHT22;23334;54.316;10.182;2023-02-20T05:51:26;7.80;99.90
37478;DHT22;23334;54.316;10.182;2023-02-20T05:53:52;7.80;99.90
37478;DHT22;23334;54.316;10.182;2023-02-20T05:56:18;7.80;99.90
37478;DHT22;23334;54.316;10.182;2023-02-20T05:58:44;7.80;99.90
37478;DHT22;23334;54.316;10.182;2023-02-20T06:01:24;7.90;99.90
37478;DHT22;23334;54.316;10.182;2023-02-20T06:03:50;8.00;99.90
37478;DHT22;23334;54.316;10.182;2023-02-20T06:06:17;7.90;99.90
37478;DHT22;23334;54.316;10.182;2023-02-20T06:08:43;7.90;99.90
37478;DHT22;23334;54.316;10.182;2023-02-20T06:11:09;7.80;99.90
37478;DHT22;23334;54.316;10.182;2023-02-20T06:13:38;7.90;99.90
37478;DHT22;23334;54.316;10.182;2023-02-20T06:16:05;7.70;99.90
37478;DHT22;23334;54.316;10.182;2023-02-20T06:18:30;7.90;99.90
37478;DHT22;23334;54.316;10.182;2023-02-20T06:23:21;7.90;99.90
37478;DHT22;23334;54.316;10.182;2023-02-20T06:25:47;7.90;99.90
37478;DHT22;23334;54.316;10.182;2023-02-20T06:28:13;7.70;99.90
37478;DHT22;23334;54.316;10.182;2023-02-20T06:30:39;8.00;99.90
37478;DHT22;23334;54.316;10.182;2023-02-20T06:33:04;8.00;99.90
37478;DHT22;23334;54.316;10.182;2023-02-20T06:37:56;8.00;99.90
37478;DHT22;23334;54.316;10.182;2023-02-20T06:40:22;8.00;99.90
37478;DHT22;23334;54.316;10.182;2023-02-20T06:42:47;8.00;99.90
37478;DHT22;23334;54.316;10.182;2023-02-20T06:45:13;8.10;99.90
37478;DHT22;23334;54.316;10.182;2023-02-20T06:47:38;8.00;99.90
37478;DHT22;23334;54.316;10.182;2023-02-20T06:50:04;8.00;99.90
37478;DHT22;23334;54.316;10.182;2023-02-20T06:52:30;8.10;99.90
37478;DHT22;23334;54.316;10.182;2023-02-20T06:54:55;8.10;99.90
37478;DHT22;23334;54.316;10.182;2023-02-20T06:57:21;8.00;99.90
37478;DHT22;23334;54.316;10.182;2023-02-20T06:59:46;8.20;99.90
37478;DHT22;23334;54.316;10.182;2023-02-20T07:02:15;8.00;99.90
37478;DHT22;23334;54.316;10.182;2023-02-20T07:04:40;8.10;99.90
37478;DHT22;23334;54.316;10.182;2023-02-20T07:07:06;8.10;99.90
37478;DHT22;23334;54.316;10.182;2023-02-20T07:09:32;8.10;99.90
37478;DHT22;23334;54.316;10.182;2023-02-20T07:11:57;8.10;99.90
37478;DHT22;23334;54.316;10.182;2023-02-20T07:14:23;8.10;99.90
37478;DHT22;23334;54.316;10.182;2023-02-20T07:16:49;8.00;99.90
37478;DHT22;23334;54.316;10.182;2023-02-20T07:19:14;8.00;99.90
37478;DHT22;23334;54.316;10.182;2023-02-20T07:24:06;8.20;99.90
37478;DHT22;23334;54.316;10.182;2023-02-20T07:28:58;7.80;99.90
37478;DHT22;23334;54.316;10.182;2023-02-20T07:31:25;8.20;99.90
37478;DHT22;23334;54.316;10.182;2023-02-20T07:36:17;8.20;99.90
37478;DHT22;23334;54.316;10.182;2023-02-20T07:38:45;7.90;99.90
37478;DHT22;23334;54.316;10.182;2023-02-20T07:41:16;7.90;99.90
37478;DHT22;23334;54.316;10.182;2023-02-20T07:43:42;8.40;99.90
37478;DHT22;23334;54.316;10.182;2023-02-20T07:46:07;8.30;99.90
37478;DHT22;23334;54.316;10.182;2023-02-20T07:48:34;8.40;99.90
37478;DHT22;23334;54.316;10.182;2023-02-20T07:53:27;8.30;99.90
37478;DHT22;23334;54.316;10.182;2023-02-20T07:55:52;8.30;99.90
37478;DHT22;23334;54.316;10.182;2023-02-20T07:58:18;8.40;99.90
37478;DHT22;23334;54.316;10.182;2023-02-20T08:00:43;8.40;99.90
37478;DHT22;23334;54.316;10.182;2023-02-20T08:03:09;7.80;99.90
37478;DHT22;23334;54.316;10.182;2023-02-20T08:05:34;8.40;99.90
37478;DHT22;23334;54.316;10.182;2023-02-20T08:10:27;8.40;99.90
37478;DHT22;23334;54.316;10.182;2023-02-20T08:12:53;8.40;99.90
37478;DHT22;23334;54.316;10.182;2023-02-20T08:15:19;8.40;99.90
37478;DHT22;23334;54.316;10.182;2023-02-20T08:17:45;8.40;99.90
37478;DHT22;23334;54.316;10.182;2023-02-20T08:22:37;8.60;99.90
37478;DHT22;23334;54.316;10.182;2023-02-20T08:25:04;8.40;99.90
37478;DHT22;23334;54.316;10.182;2023-02-20T08:27:30;8.40;99.90
37478;DHT22;23334;54.316;10.182;2023-02-20T08:29:57;8.40;99.90
37478;DHT22;23334;54.316;10.182;2023-02-20T08:32:23;8.10;99.90
37478;DHT22;23334;54.316;10.182;2023-02-20T08:34:48;8.50;99.90
37478;DHT22;23334;54.316;10.182;2023-02-20T08:37:14;8.50;99.90
37478;DHT22;23334;54.316;10.182;2023-02-20T08:42:05;8.60;99.90
37478;DHT22;23334;54.316;10.182;2023-02-20T08:44:31;10.70;99.90
37478;DHT22;23334;54.316;10.182;2023-02-20T08:46:56;8.60;99.90
37478;DHT22;23334;54.316;10.182;2023-02-20T08:49:22;8.60;99.90
37478;DHT22;23334;54.316;10.182;2023-02-20T08:51:51;8.50;99.90
37478;DHT22;23334;54.316;10.182;2023-02-20T08:54:16;8.50;99.90
37478;DHT22;23334;54.316;10.182;2023-02-20T08:56:42;8.60;99.90
37478;DHT22;23334;54.316;10.182;2023-02-20T08:59:08;8.60;99.90
37478;DHT22;23334;54.316;10.182;2023-02-20T09:01:34;8.40;99.90
37478;DHT22;23334;54.316;10.182;2023-02-20T09:04:00;8.80;99.90
37478;DHT22;23334;54.316;10.182;2023-02-20T09:06:26;8.70;99.90
37478;DHT22;23334;54.316;10.182;2023-02-20T09:08:54;8.70;99.90
37478;DHT22;23334;54.316;10.182;2023-02-20T09:11:19;8.30;99.90
37478;DHT22;23334;54.316;10.182;2023-02-20T09:13:46;8.80;99.90
37478;DHT22;23334;54.316;10.182;2023-02-20T09:16:14;8.70;99.90
37478;DHT22;23334;54.316;10.182;2023-02-20T09:18:40;8.80;99.90
37478;DHT22;23334;54.316;10.182;2023-02-20T09:21:14;8.90;99.90
37478;DHT22;23334;54.316;10.182;2023-02-20T09:23:40;9.00;99.90
37478;DHT22;23334;54.316;10.182;2023-02-20T09:26:05;8.90;99.90
37478;DHT22;23334;54.316;10.182;2023-02-20T09:28:31;9.00;99.90
37478;DHT22;23334;54.316;10.182;2023-02-20T09:30:57;9.00;99.90
37478;DHT22;23334;54.316;10.182;2023-02-20T09:33:25;9.00;99.90
37478;DHT22;23334;54.316;10.182;2023-02-20T09:35:51;9.10;99.90
37478;DHT22;23334;54.316;10.182;2023-02-20T09:38:19;9.10;99.90
37478;DHT22;23334;54.316;10.182;2023-02-20T09:40:48;9.10;99.90
37478;DHT22;23334;54.316;10.182;2023-02-20T09:43:18;9.00;99.90
37478;DHT22;23334;54.316;10.182;2023-02-20T09:51:23;9.10;99.90
37478;DHT22;23334;54.316;10.182;2023-02-20T09:54:05;9.50;99.90
37478;DHT22;23334;54.316;10.182;2023-02-20T09:56:35;9.40;99.90
37478;DHT22;23334;54.316;10.182;2023-02-20T09:59:06;9.50;99.90
37478;DHT22;23334;54.316;10.182;2023-02-20T10:01:37;9.10;99.90
37478;DHT22;23334;54.316;10.182;2023-02-20T10:04:12;9.40;99.90
37478;DHT22;23334;54.316;10.182;2023-02-20T10:06:39;9.40;99.90
37478;DHT22;23334;54.316;10.182;2023-02-20T10:09:09;9.60;99.90
37478;DHT22;23334;54.316;10.182;2023-02-20T10:17:22;9.40;99.90
37478;DHT22;23334;54.316;10.182;2023-02-20T10:22:38;9.60;99.90
37478;DHT22;23334;54.316;10.182;2023-02-20T10:25:19;9.60;99.90
37478;DHT22;23334;54.316;10.182;2023-02-20T10:28:07;9.60;99.90
37478;DHT22;23334;54.316;10.182;2023-02-20T10:30:37;9.30;99.90
37478;DHT22;23334;54.316;10.182;2023-02-20T10:36:06;9.60;99.90
37478;DHT22;23334;54.316;10.182;2023-02-20T10:38:39;9.60;99.90
37478;DHT22;23334;54.316;10.182;2023-02-20T10:41:18;9.80;99.90
37478;DHT22;23334;54.316;10.182;2023-02-20T10:44:07;9.60;99.90
37478;DHT22;23334;54.316;10.182;2023-02-20T10:46:45;9.50;99.90
37478;DHT22;23334;54.316;10.182;2023-02-20T10:49:19;9.30;99.90
37478;DHT22;23334;54.316;10.182;2023-02-20T10:51:49;9.30;99.90
37478;DHT22;23334;54.316;10.182;2023-02-20T10:54:23;9.70;99.90
37478;DHT22;23334;54.316;10.182;2023-02-20T10:57:05;9.50;99.90
37478;DHT22;23334;54.316;10.182;2023-02-20T11:02:18;9.70;99.90
37478;DHT22;23334;54.316;10.182;2023-02-20T11:05:04;9.70;99.90
37478;DHT22;23334;54.316;10.182;2023-02-20T11:07:31;9.70;99.90
37478;DHT22;23334;54.316;10.182;2023-02-20T11:09:56;9.40;99.90
37478;DHT22;23334;54.316;10.182;2023-02-20T11:12:45;9.70;99.90
37478;DHT22;23334;54.316;10.182;2023-02-20T11:15:15;9.70;99.90
37478;DHT22;23334;54.316;10.182;2023-02-20T11:17:43;9.60;99.90
37478;DHT22;23334;54.316;10.182;2023-02-20T11:22:57;9.80;99.90
37478;DHT22;23334;54.316;10.182;2023-02-20T11:25:31;9.80;99.90
37478;DHT22;23334;54.316;10.182;2023-02-20T11:28:20;9.50;99.90
37478;DHT22;23334;54.316;10.182;2023-02-20T11:30:49;9.70;99.90
37478;DHT22;23334;54.316;10.182;2023-02-20T11:33:20;10.00;99.90
37478;DHT22;23334;54.316;10.182;2023-02-20T11:35:52;9.70;99.90
37478;DHT22;23334;54.316;10.182;2023-02-20T11:40:58;9.60;99.90
37478;DHT22;23334;54.316;10.182;2023-02-20T11:43:43;9.90;99.90
37478;DHT22;23334;54.316;10.182;2023-02-20T11:51:48;9.90;99.90
37478;DHT22;23334;54.316;10.182;2023-02-20T11:54:19;9.90;99.90
37478;DHT22;23334;54.316;10.182;2023-02-20T11:57:05;9.80;99.90
37478;DHT22;23334;54.316;10.182;2023-02-20T11:59:50;9.80;99.90
37478;DHT22;23334;54.316;10.182;2023-02-20T12:07:40;10.20;99.90
37478;DHT22;23334;54.316;10.182;2023-02-20T12:10:20;9.90;99.90
37478;DHT22;23334;54.316;10.182;2023-02-20T12:12:48;9.90;99.90
37478;DHT22;23334;54.316;10.182;2023-02-20T12:15:17;10.00;99.90
37478;DHT22;23334;54.316;10.182;2023-02-20T12:18:09;9.70;99.90
37478;DHT22;23334;54.316;10.182;2023-02-20T12:20:43;10.00;99.90
37478;DHT22;23334;54.316;10.182;2023-02-20T12:23:32;9.80;99.90
37478;DHT22;23334;54.316;10.182;2023-02-20T12:28:58;10.00;99.90
37478;DHT22;23334;54.316;10.182;2023-02-20T12:36:55;10.30;99.90
37478;DHT22;23334;54.316;10.182;2023-02-20T12:39:34;10.00;99.90
37478;DHT22;23334;54.316;10.182;2023-02-20T12:45:07;10.10;99.90
37478;DHT22;23334;54.316;10.182;2023-02-20T12:47:40;10.10;99.90
37478;DHT22;23334;54.316;10.182;2023-02-20T12:50:39;9.80;99.90
37478;DHT22;23334;54.316;10.182;2023-02-20T12:53:31;10.10;99.90
37478;DHT22;23334;54.316;10.182;2023-02-20T12:56:08;10.10;99.90
37478;DHT22;23334;54.316;10.182;2023-02-20T12:59:02;9.90;99.90
37478;DHT22;23334;54.316;10.182;2023-02-20T13:01:29;10.00;99.90
37478;DHT22;23334;54.316;10.182;2023-02-20T13:07:01;9.80;99.90
37478;DHT22;23334;54.316;10.182;2023-02-20T13:09:44;9.60;99.90
37478;DHT22;23334;54.316;10.182;2023-02-20T13:12:15;9.40;99.90
37478;DHT22;23334;54.316;10.182;2023-02-20T13:18:04;9.30;99.90
37478;DHT22;23334;54.316;10.182;2023-02-20T13:20:44;11.00;99.90
37478;DHT22;23334;54.316;10.182;2023-02-20T13:25:47;9.10;99.90
37478;DHT22;23334;54.316;10.182;2023-02-20T13:31:12;9.10;99.90
37478;DHT22;23334;54.316;10.182;2023-02-20T13:33:40;9.10;99.90
37478;DHT22;23334;54.316;10.182;2023-02-20T13:36:16;9.00;99.90
37478;DHT22;23334;54.316;10.182;2023-02-20T13:39:24;9.00;99.90
37478;DHT22;23334;54.316;10.182;2023-02-20T13:44:32;8.90;99.90
37478;DHT22;23334;54.316;10.182;2023-02-20T13:55:15;9.00;99.90
37478;DHT22;23334;54.316;10.182;2023-02-20T13:57:45;9.00;99.90
37478;DHT22;23334;54.316;10.182;2023-02-20T14:00:26;9.00;99.90
37478;DHT22;23334;54.316;10.182;2023-02-20T14:02:53;8.90;99.90
37478;DHT22;23334;54.316;10.182;2023-02-20T14:07:47;9.00;99.90
37478;DHT22;23334;54.316;10.182;2023-02-20T14:15:05;8.90;99.90
37478;DHT22;23334;54.316;10.182;2023-02-20T14:17:31;8.90;99.90
37478;DHT22;23334;54.316;10.182;2023-02-20T14:20:00;8.80;99.90
37478;DHT22;23334;54.316;10.182;2023-02-20T14:22:32;8.80;99.90
37478;DHT22;23334;54.316;10.182;2023-02-20T14:27:45;8.80;99.90
37478;DHT22;23334;54.316;10.182;2023-02-20T14:30:11;8.70;99.90
37478;DHT22;23334;54.316;10.182;2023-02-20T14:32:42;8.80;99.90
37478;DHT22;23334;54.316;10.182;2023-02-20T14:35:30;8.80;99.90
37478;DHT22;23334;54.316;10.182;2023-02-20T14:38:14;8.70;99.90
37478;DHT22;23334;54.316;10.182;2023-02-20T14:40:42;8.20;99.90
37478;DHT22;23334;54.316;10.182;2023-02-20T14:43:25;8.40;99.90
37478;DHT22;23334;54.316;10.182;2023-02-20T14:46:06;8.70;99.90
37478;DHT22;23334;54.316;10.182;2023-02-20T14:48:34;8.70;99.90
37478;DHT22;23334;54.316;10.182;2023-02-20T14:51:14;8.60;99.90
37478;DHT22;23334;54.316;10.182;2023-02-20T14:53:41;8.70;99.90
37478;DHT22;23334;54.316;10.182;2023-02-20T14:56:15;8.50;99.90
37478;DHT22;23334;54.316;10.182;2023-02-20T14:58:42;8.60;99.90
37478;DHT22;23334;54.316;10.182;2023-02-20T15:01:35;8.60;99.90
37478;DHT22;23334;54.316;10.182;2023-02-20T15:04:11;8.70;99.90
37478;DHT22;23334;54.316;10.182;2023-02-20T15:06:39;8.60;99.90
37478;DHT22;23334;54.316;10.182;2023-02-20T15:09:05;8.60;99.90
37478;DHT22;23334;54.316;10.182;2023-02-20T15:11:31;8.50;99.90
37478;DHT22;23334;54.316;10.182;2023-02-20T15:16:30;8.60;99.90
37478;DHT22;23334;54.316;10.182;2023-02-20T15:18:56;8.70;99.90
37478;DHT22;23334;54.316;10.182;2023-02-20T15:21:37;8.60;99.90
37478;DHT22;23334;54.316;10.182;2023-02-20T15:26:49;9.00;99.90
37478;DHT22;23334;54.316;10.182;2023-02-20T15:29:18;8.60;99.90
37478;DHT22;23334;54.316;10.182;2023-02-20T15:31:46;8.80;99.90
37478;DHT22;23334;54.316;10.182;2023-02-20T15:34:24;8.70;99.90
37478;DHT22;23334;54.316;10.182;2023-02-20T15:36:50;8.60;99.90
37478;DHT22;23334;54.316;10.182;2023-02-20T15:39:16;8.40;99.90
37478;DHT22;23334;54.316;10.182;2023-02-20T15:41:44;8.30;99.90
37478;DHT22;23334;54.316;10.182;2023-02-20T15:44:09;8.70;99.90
37478;DHT22;23334;54.316;10.182;2023-02-20T15:46:48;8.60;99.90
37478;DHT22;23334;54.316;10.182;2023-02-20T15:49:14;8.50;99.90
37478;DHT22;23334;54.316;10.182;2023-02-20T15:51:40;8.60;99.90
37478;DHT22;23334;54.316;10.182;2023-02-20T15:54:09;8.60;99.90
37478;DHT22;23334;54.316;10.182;2023-02-20T15:56:37;8.60;99.90
37478;DHT22;23334;54.316;10.182;2023-02-20T15:59:08;8.70;99.90
37478;DHT22;23334;54.316;10.182;2023-02-20T16:01:34;8.50;99.90
37478;DHT22;23334;54.316;10.182;2023-02-20T16:08:52;8.70;99.90
37478;DHT22;23334;54.316;10.182;2023-02-20T16:11:19;8.70;99.90
37478;DHT22;23334;54.316;10.182;2023-02-20T16:13:48;8.60;99.90
37478;DHT22;23334;54.316;10.182;2023-02-20T16:16:22;8.60;99.90
37478;DHT22;23334;54.316;10.182;2023-02-20T16:18:47;8.30;99.90
37478;DHT22;23334;54.316;10.182;2023-02-20T16:21:17;8.50;99.90
37478;DHT22;23334;54.316;10.182;2023-02-20T16:23:43;8.70;99.90
37478;DHT22;23334;54.316;10.182;2023-02-20T16:28:38;8.60;99.90
37478;DHT22;23334;54.316;10.182;2023-02-20T16:31:04;8.60;99.90
37478;DHT22;23334;54.316;10.182;2023-02-20T16:36:34;8.60;99.90
37478;DHT22;23334;54.316;10.182;2023-02-20T16:38:59;8.30;99.90
37478;DHT22;23334;54.316;10.182;2023-02-20T16:41:25;8.70;99.90
37478;DHT22;23334;54.316;10.182;2023-02-20T16:48:42;8.60;99.90
37478;DHT22;23334;54.316;10.182;2023-02-20T16:51:18;8.60;99.90
37478;DHT22;23334;54.316;10.182;2023-02-20T16:53:46;8.70;99.90
37478;DHT22;23334;54.316;10.182;2023-02-20T16:58:38;8.60;99.90
37478;DHT22;23334;54.316;10.182;2023-02-20T17:01:04;8.60;99.90
37478;DHT22;23334;54.316;10.182;2023-02-20T17:03:30;8.70;99.90
37478;DHT22;23334;54.316;10.182;2023-02-20T17:05:56;8.60;99.90
37478;DHT22;23334;54.316;10.182;2023-02-20T17:08:25;8.50;99.90
37478;DHT22;23334;54.316;10.182;2023-02-20T17:10:51;8.60;99.90
37478;DHT22;23334;54.316;10.182;2023-02-20T17:20:37;8.60;99.90
37478;DHT22;23334;54.316;10.182;2023-02-20T17:30:32;8.50;99.90
37478;DHT22;23334;54.316;10.182;2023-02-20T17:32:57;8.50;99.90
37478;DHT22;23334;54.316;10.182;2023-02-20T17:35:52;8.60;99.90
37478;DHT22;23334;54.316;10.182;2023-02-20T17:42:12;8.50;99.90
37478;DHT22;23334;54.316;10.182;2023-02-20T17:45:43;8.50;99.90
37478;DHT22;23334;54.316;10.182;2023-02-20T17:52:21;8.50;99.90
37478;DHT22;23334;54.316;10.182;2023-02-20T17:59:12;8.50;99.90
37478;DHT22;23334;54.316;10.182;2023-02-20T18:02:37;8.40;99.90
37478;DHT22;23334;54.316;10.182;2023-02-20T18:15:53;8.40;99.90
37478;DHT22;23334;54.316;10.182;2023-02-20T18:18:19;10.60;99.90
37478;DHT22;23334;54.316;10.182;2023-02-20T18:20:46;8.30;99.90
37478;DHT22;23334;54.316;10.182;2023-02-20T18:23:19;8.30;99.90
37478;DHT22;23334;54.316;10.182;2023-02-20T18:25:49;8.40;99.90
37478;DHT22;23334;54.316;10.182;2023-02-20T18:28:21;8.30;99.90
37478;DHT22;23334;54.316;10.182;2023-02-20T18:30:46;8.30;99.90
37478;DHT22;23334;54.316;10.182;2023-02-20T18:33:12;8.30;99.90
37478;DHT22;23334;54.316;10.182;2023-02-20T18:40:30;8.30;99.90
37478;DHT22;23334;54.316;10.182;2023-02-20T18:42:55;8.20;99.90
37478;DHT22;23334;54.316;10.182;2023-02-20T18:45:24;8.30;99.90
37478;DHT22;23334;54.316;10.182;2023-02-20T18:47:51;8.30;99.90
37478;DHT22;23334;54.316;10.182;2023-02-20T18:50:18;8.20;99.90
37478;DHT22;23334;54.316;10.182;2023-02-20T18:52:47;8.20;99.90
37478;DHT22;23334;54.316;10.182;2023-02-20T18:55:14;8.30;99.90
37478;DHT22;23334;54.316;10.182;2023-02-20T18:57:45;8.30;99.90
37478;DHT22;23334;54.316;10.182;2023-02-20T19:00:23;8.10;99.90
37478;DHT22;23334;54.316;10.182;2023-02-20T19:02:50;8.20;99.90
37478;DHT22;23334;54.316;10.182;2023-02-20T19:05:16;8.20;99.90
37478;DHT22;23334;54.316;10.182;2023-02-20T19:07:43;8.20;99.90
37478;DHT22;23334;54.316;10.182;2023-02-20T19:10:11;8.10;99.90
37478;DHT22;23334;54.316;10.182;2023-02-20T19:12:37;8.20;99.90
37478;DHT22;23334;54.316;10.182;2023-02-20T19:15:04;8.20;99.90
37478;DHT22;23334;54.316;10.182;2023-02-20T19:19:57;8.10;99.90
37478;DHT22;23334;54.316;10.182;2023-02-20T19:22:22;8.10;99.90
37478;DHT22;23334;54.316;10.182;2023-02-20T19:24:48;8.10;99.90
37478;DHT22;23334;54.316;10.182;2023-02-20T19:27:13;8.10;99.90
37478;DHT22;23334;54.316;10.182;2023-02-20T19:29:39;8.00;99.90
37478;DHT22;23334;54.316;10.182;2023-02-20T19:34:30;7.80;99.90
37478;DHT22;23334;54.316;10.182;2023-02-20T19:36:56;7.80;99.90
37478;DHT22;23334;54.316;10.182;2023-02-20T19:39:21;7.70;99.90
37478;DHT22;23334;54.316;10.182;2023-02-20T19:41:48;7.70;99.90